Time;durP1;ratioP1;P1;durP2;ratioP2;P2;SDS_P1;SDS_P2;PMS_P1;PMS_P2;Temp;Humidity;BMP_temperature;BMP_pressure;BME280_temperature;BME280_humidity;BME280_pressure;Samples;Min_cycle;Max_cycle;Signal;HPM_P1;HPM_P2
2022/11/28 00:01:50;;;;;;;19.70;11.27;;;;;;;12.39;100.00;100810.25;4992850;28;20291;-52
2022/11/28 00:04:15;;;;;;;18.27;10.63;;;;;;;12.62;100.00;100804.41;4986225;28;20038;-56
2022/11/28 00:06:44;;;;;;;26.98;11.02;;;;;;;12.18;100.00;100798.69;4986026;28;20031;-57
2022/11/28 00:09:12;;;;;;;16.70;8.55;;;;;;;12.39;100.00;100794.16;4990007;28;20039;-57
2022/11/28 00:11:43;;;;;;;19.98;9.70;;;;;;;12.48;100.00;100804.44;4984049;28;20058;-55
2022/11/28 00:14:09;;;;;;;15.55;9.52;;;;;;;12.53;100.00;100805.69;4989485;28;20032;-55
2022/11/28 00:16:35;;;;;;;20.77;10.27;;;;;;;12.40;100.00;100796.59;4985270;28;20027;-58
2022/11/28 00:19:02;;;;;;;21.23;9.93;;;;;;;12.84;100.00;100796.94;4988216;28;20297;-58
2022/11/28 00:21:29;;;;;;;18.83;8.77;;;;;;;12.16;100.00;100796.22;5015154;28;20060;-53
2022/11/28 00:23:54;;;;;;;15.25;8.52;;;;;;;12.41;100.00;100792.88;4969442;28;20298;-57
2022/11/28 00:26:29;;;;;;;13.23;7.83;;;;;;;12.46;100.00;100797.63;4988369;28;20051;-57
2022/11/28 00:28:55;;;;;;;21.13;9.00;;;;;;;12.70;100.00;100793.47;4987898;28;20031;-56
2022/11/28 00:31:23;;;;;;;13.57;7.93;;;;;;;12.61;100.00;100792.88;4992539;28;20027;-54
2022/11/28 00:33:50;;;;;;;15.48;7.18;;;;;;;12.44;100.00;100800.50;4985477;28;20270;-56
2022/11/28 00:36:17;;;;;;;16.55;8.65;;;;;;;12.33;100.00;100803.84;4987928;28;20038;-54
2022/11/28 00:38:42;;;;;;;12.27;6.73;;;;;;;12.49;100.00;100802.56;4992605;28;20115;-51
2022/11/28 00:41:17;;;;;;;14.60;6.63;;;;;;;12.43;100.00;100784.66;4990205;28;20288;-55
2022/11/28 00:43:45;;;;;;;12.77;7.03;;;;;;;12.77;100.00;100791.59;4991341;28;20072;-55
2022/11/28 00:46:12;;;;;;;16.73;8.13;;;;;;;12.42;100.00;100783.81;4990137;28;20288;-55
2022/11/28 00:48:37;;;;;;;14.00;6.80;;;;;;;12.59;100.00;100780.69;4990057;28;20027;-56
2022/11/28 00:51:15;;;;;;;14.23;6.00;;;;;;;12.65;100.00;100806.66;4987592;28;20325;-56
2022/11/28 00:53:42;;;;;;;14.23;6.57;;;;;;;12.30;100.00;100780.13;4990358;28;20035;-55
2022/11/28 00:56:12;;;;;;;14.10;6.40;;;;;;;12.30;100.00;100785.50;4992503;28;20288;-56
2022/11/28 00:58:38;;;;;;;17.20;7.33;;;;;;;12.12;100.00;100783.47;4990611;28;20276;-57
2022/11/28 01:01:22;;;;;;;16.38;7.07;;;;;;;12.55;100.00;100782.16;4989970;28;20299;-56
2022/11/28 01:03:49;;;;;;;16.47;7.27;;;;;;;12.84;100.00;100774.63;4988789;28;20109;-57
2022/11/28 01:06:29;;;;;;;;;;;;;;;12.95;100.00;100768.63;4988932;28;20300;-56
2022/11/28 01:08:57;;;;;;;15.60;6.83;;;;;;;12.58;100.00;100760.25;4988033;28;19921;-55
2022/11/28 01:11:23;;;;;;;13.77;6.80;;;;;;;12.80;100.00;100773.41;4987187;28;20265;-57
2022/11/28 01:13:52;;;;;;;13.60;6.60;;;;;;;13.23;100.00;100772.81;4992305;28;20276;-55
2022/11/28 01:16:17;;;;;;;15.73;6.83;;;;;;;13.04;100.00;100758.47;4989122;28;20129;-56
2022/11/28 01:18:42;;;;;;;18.27;8.37;;;;;;;12.71;100.00;100754.88;4985927;28;20284;-57
2022/11/28 01:21:09;;;;;;;14.20;6.73;;;;;;;12.56;100.00;100756.97;4989823;28;20031;-54
2022/11/28 01:23:35;;;;;;;;;;;;;;;13.09;100.00;100755.09;4989952;28;20039;-57
2022/11/28 01:26:01;;;;;;;16.23;7.20;;;;;;;12.89;100.00;100753.34;4991570;28;19921;-55
2022/11/28 01:28:27;;;;;;;;;;;;;;;13.23;100.00;100753.19;4988517;28;20041;-56
2022/11/28 01:30:52;;;;;;;16.57;7.60;;;;;;;12.68;100.00;100752.59;4989421;28;19981;-57
2022/11/28 01:33:18;;;;;;;18.90;6.97;;;;;;;12.99;100.00;100751.03;4989560;28;20038;-56
2022/11/28 01:35:53;;;;;;;16.70;7.03;;;;;;;12.47;100.00;100749.16;4987257;28;20047;-56
2022/11/28 01:38:19;;;;;;;12.47;7.03;;;;;;;12.68;100.00;100746.41;4987494;28;20030;-57
2022/11/28 01:40:45;;;;;;;14.67;6.33;;;;;;;12.90;100.00;100755.81;4988188;28;20310;-55
2022/11/28 01:43:10;;;;;;;15.10;7.47;;;;;;;12.77;100.00;100763.91;4991817;28;20036;-56
2022/11/28 01:45:38;;;;;;;19.23;7.57;;;;;;;12.85;100.00;100749.44;4985623;28;20059;-56
2022/11/28 01:48:08;;;;;;;13.43;6.53;;;;;;;12.71;100.00;100749.50;4983083;28;20111;-55
2022/11/28 01:50:35;;;;;;;15.50;6.57;;;;;;;12.94;100.00;100758.91;4987791;28;20261;-57
2022/11/28 01:53:05;;;;;;;15.87;7.00;;;;;;;13.19;100.00;100747.44;4989277;28;20352;-56
2022/11/28 01:55:34;;;;;;;16.70;6.60;;;;;;;12.90;100.00;100757.66;4989893;28;20304;-57
2022/11/28 01:58:00;;;;;;;17.47;8.00;;;;;;;12.71;100.00;100757.56;4989198;28;20277;-55
2022/11/28 02:00:26;;;;;;;12.68;6.70;;;;;;;13.02;100.00;100755.97;4982566;28;20279;-55
2022/11/28 02:02:57;;;;;;;13.27;6.50;;;;;;;12.98;100.00;100744.03;4991739;28;20043;-56
2022/11/28 02:05:23;;;;;;;13.87;7.43;;;;;;;13.11;100.00;100742.28;4989650;28;20054;-56
2022/11/28 02:07:50;;;;;;;11.50;6.20;;;;;;;13.62;100.00;100746.78;4991445;28;20284;-57
2022/11/28 02:10:21;;;;;;;13.07;5.80;;;;;;;12.81;100.00;100743.69;4984610;28;20027;-54
2022/11/28 02:13:11;;;;;;;13.10;5.50;;;;;;;13.50;100.00;100732.38;4989203;28;20279;-57
2022/11/28 02:16:04;;;;;;;15.10;6.00;;;;;;;13.19;100.00;100737.50;4988511;28;20269;-54
2022/11/28 02:18:41;;;;;;;15.87;6.90;;;;;;;13.17;100.00;100744.13;4988879;28;20361;-55
2022/11/28 02:21:37;;;;;;;16.70;6.70;;;;;;;13.15;100.00;100740.84;4984828;28;20296;-56
2022/11/28 02:24:25;;;;;;;10.80;5.67;;;;;;;13.38;100.00;100734.06;4987842;28;20318;-55
2022/11/28 02:27:03;;;;;;;11.13;6.27;;;;;;;13.68;100.00;100728.94;4989506;28;20275;-55
2022/11/28 02:29:35;;;;;;;14.53;5.90;;;;;;;13.46;100.00;100740.03;4985315;28;20261;-57
2022/11/28 02:32:12;;;;;;;15.33;6.33;;;;;;;12.97;100.00;100720.91;4984437;28;20328;-55
2022/11/28 02:35:20;;;;;;;10.90;5.57;;;;;;;12.96;100.00;100730.00;4983089;28;20262;-57
2022/11/28 02:38:05;;;;;;;11.73;5.70;;;;;;;12.84;100.00;100731.69;4985008;28;20355;-58
2022/11/28 02:40:59;;;;;;;14.10;6.17;;;;;;;12.95;100.00;100728.34;4987175;28;20069;-58
2022/11/28 02:43:44;;;;;;;10.30;5.57;;;;;;;12.80;100.00;100730.47;4984595;28;20265;-54
2022/11/28 02:46:14;;;;;;;11.30;6.23;;;;;;;12.49;100.00;100735.53;4986968;28;20268;-56
2022/11/28 02:48:42;;;;;;;9.83;5.17;;;;;;;12.58;100.00;100728.06;4986433;28;20281;-56
2022/11/28 02:51:22;;;;;;;10.20;5.00;;;;;;;12.46;100.00;100747.50;4990531;28;20271;-57
2022/11/28 02:53:50;;;;;;;10.80;5.00;;;;;;;12.23;100.00;100731.06;4984954;28;20278;-58
2022/11/28 02:56:15;;;;;;;9.90;5.53;;;;;;;12.65;100.00;100736.91;4977519;28;20305;-57
2022/11/28 02:58:41;;;;;;;11.10;4.80;;;;;;;12.39;100.00;100727.09;4959654;28;20345;-58
2022/11/28 03:01:23;;;;;;;11.43;5.63;;;;;;;12.62;100.00;100726.59;4974529;28;20273;-57
2022/11/28 03:04:02;;;;;;;10.17;6.13;;;;;;;12.66;100.00;100724.34;4961029;28;20103;-57
2022/11/28 03:06:43;;;;;;;11.33;6.27;;;;;;;12.53;100.00;100733.25;4955010;29;20282;-56
2022/11/28 03:09:30;;;;;;;17.43;7.50;;;;;;;12.68;100.00;100723.06;4955131;29;20282;-56
2022/11/28 03:11:55;;;;;;;12.35;6.25;;;;;;;12.53;100.00;100722.53;4955027;28;20286;-54
2022/11/28 03:14:52;;;;;;;12.25;5.70;;;;;;;12.57;100.00;100710.31;4956055;28;20062;-57
2022/11/28 03:17:32;;;;;;;15.77;6.77;;;;;;;13.27;100.00;100720.31;4956381;28;20019;-55
2022/11/28 03:20:20;;;;;;;15.40;6.90;;;;;;;12.66;100.00;100725.16;4954177;28;20349;-55
2022/11/28 03:23:16;;;;;;;14.53;5.83;;;;;;;12.71;100.00;100721.84;4952297;28;20301;-57
2022/11/28 03:25:58;;;;;;;16.10;6.57;;;;;;;13.27;100.00;100732.94;4954130;29;20277;-56
2022/11/28 03:28:24;;;;;;;12.63;6.57;;;;;;;12.79;100.00;100721.59;4954331;29;20270;-57
2022/11/28 03:31:03;;;;;;;25.40;7.63;;;;;;;12.59;100.00;100724.34;4955329;29;20297;-57
2022/11/28 03:33:33;;;;;;;10.50;5.53;;;;;;;12.60;100.00;100731.38;4964552;28;20031;-54
2022/11/28 03:36:05;;;;;;;13.43;6.23;;;;;;;12.62;100.00;100729.28;4953409;29;20266;-57
2022/11/28 03:38:37;;;;;;;16.67;6.90;;;;;;;12.75;100.00;100723.88;4953924;28;20278;-59
2022/11/28 03:41:09;;;;;;;9.47;5.57;;;;;;;12.54;100.00;100730.34;4955355;29;20278;-57
2022/11/28 03:43:40;;;;;;;13.47;6.80;;;;;;;12.76;100.00;100722.84;4954904;29;20278;-54
2022/11/28 03:46:10;;;;;;;13.43;6.90;;;;;;;12.50;100.00;100720.25;4955530;28;20266;-57
2022/11/28 03:48:41;;;;;;;12.47;6.73;;;;;;;12.74;100.00;100719.56;4954398;29;20268;-57
2022/11/28 03:51:38;;;;;;;15.03;5.80;;;;;;;12.26;100.00;100723.41;4955986;28;20266;-54
2022/11/28 03:54:12;;;;;;;12.47;6.33;;;;;;;12.44;100.00;100727.28;4959071;28;20266;-56
2022/11/28 03:56:51;;;;;;;15.57;6.20;;;;;;;13.10;100.00;100720.00;4975784;28;20308;-56
2022/11/28 03:59:40;;;;;;;15.37;7.20;;;;;;;12.29;100.00;100727.53;4988543;28;20300;-58
2022/11/28 04:02:16;;;;;;;13.10;6.63;;;;;;;12.60;100.00;100721.47;4996311;28;20273;-58
2022/11/28 04:04:53;;;;;;;14.77;6.90;;;;;;;12.56;100.00;100730.94;4992477;28;20356;-57
2022/11/28 04:07:38;;;;;;;12.23;6.72;;;;;;;12.77;100.00;100719.13;4992910;28;20269;-57
2022/11/28 04:10:17;;;;;;;13.57;6.72;;;;;;;12.54;100.00;100721.50;4992062;28;20039;-60
2022/11/28 04:12:55;;;;;;;14.43;6.90;;;;;;;12.64;100.00;100724.53;4987164;28;20072;-56
2022/11/28 04:15:28;;;;;;;13.00;6.37;;;;;;;12.69;100.00;100730.13;4990795;28;20272;-54
2022/11/28 04:18:33;;;;;;;15.63;6.30;;;;;;;13.61;100.00;100726.31;4987613;28;20285;-57
2022/11/28 04:21:18;;;;;;;17.67;7.30;;;;;;;12.81;100.00;100734.81;4991621;28;20299;-58
2022/11/28 04:23:46;;;;;;;15.50;6.77;;;;;;;12.69;100.00;100732.78;4985466;28;20261;-57
2022/11/28 04:26:17;;;;;;;12.13;6.60;;;;;;;12.77;100.00;100731.72;4987238;28;20345;-55
2022/11/28 04:28:46;;;;;;;15.03;7.13;;;;;;;13.05;100.00;100733.25;4992923;28;20288;-56
2022/11/28 04:31:16;;;;;;;11.57;6.67;;;;;;;12.79;100.00;100734.19;4989885;28;20284;-58
2022/11/28 04:33:46;;;;;;;14.20;6.83;;;;;;;12.93;100.00;100733.09;4981327;28;20276;-58
2022/11/28 04:36:15;;;;;;;14.03;7.33;;;;;;;12.71;100.00;100727.19;4989144;28;20277;-56
2022/11/28 04:38:43;;;;;;;20.17;7.13;;;;;;;13.05;100.00;100734.06;4986267;28;20311;-56
2022/11/28 04:41:13;;;;;;;14.87;7.00;;;;;;;13.04;100.00;100728.94;4983960;28;20268;-57
2022/11/28 04:43:57;;;;;;;10.87;6.40;;;;;;;12.95;100.00;100725.66;4987124;28;20348;-54
2022/11/28 04:46:31;;;;;;;10.20;6.33;;;;;;;12.91;100.00;100732.47;4984684;28;20327;-57
2022/11/28 04:48:57;;;;;;;11.30;6.50;;;;;;;12.74;100.00;100732.13;4985322;28;20269;-56
2022/11/28 04:51:25;;;;;;;15.15;7.45;;;;;;;12.51;100.00;100736.13;4979706;28;20264;-56
2022/11/28 04:54:03;;;;;;;14.90;6.93;;;;;;;12.68;100.00;100731.13;4984153;28;20074;-57
2022/11/28 04:56:53;;;;;;;18.47;7.27;;;;;;;12.67;100.00;100725.97;5001244;28;20286;-55
2022/11/28 04:59:21;;;;;;;12.30;6.80;;;;;;;12.61;100.00;100733.00;4968216;29;20319;-58
2022/11/28 05:01:49;;;;;;;11.57;6.43;;;;;;;12.51;100.00;100732.66;4972164;28;20361;-57
2022/11/28 05:04:16;;;;;;;16.03;7.33;;;;;;;12.33;100.00;100734.13;4963734;28;20285;-57
2022/11/28 05:06:41;;;;;;;11.70;6.60;;;;;;;12.60;100.00;100736.72;4961149;28;20274;-59
2022/11/28 05:09:10;;;;;;;14.43;7.10;;;;;;;12.88;100.00;100741.78;4966918;28;20270;-55
2022/11/28 05:11:36;;;;;;;13.13;7.87;;;;;;;12.32;100.00;100746.69;4972974;28;20265;-52
2022/11/28 05:14:01;;;;;;;14.10;7.10;;;;;;;12.18;100.00;100745.91;4959983;28;20338;-57
2022/11/28 05:16:27;;;;;;;13.88;7.72;;;;;;;12.30;100.00;100746.09;4971970;28;20061;-57
2022/11/28 05:18:52;;;;;;;12.60;7.70;;;;;;;12.62;100.00;100748.06;4972662;28;20170;-55
2022/11/28 05:21:18;;;;;;;16.48;9.40;;;;;;;12.37;100.00;100756.00;4972336;28;20043;-55
2022/11/28 05:23:44;;;;;;;15.33;9.10;;;;;;;12.55;100.00;100749.97;4968020;28;20130;-56
2022/11/28 05:26:13;;;;;;;13.65;7.88;;;;;;;12.54;100.00;100748.31;4970573;28;20261;-56
2022/11/28 05:28:38;;;;;;;15.97;7.60;;;;;;;12.65;100.00;100758.38;4965791;29;20055;-56
2022/11/28 05:31:04;;;;;;;14.53;8.20;;;;;;;12.63;100.00;100755.09;4972718;28;20285;-57
2022/11/28 05:33:31;;;;;;;17.85;9.15;;;;;;;12.82;100.00;100755.22;4970073;28;20043;-56
2022/11/28 05:36:04;;;;;;;14.03;8.33;;;;;;;12.54;100.00;100754.47;4963961;28;20044;-57
2022/11/28 05:38:31;;;;;;;12.90;7.50;;;;;;;12.14;100.00;100759.94;4965650;28;20269;-57
2022/11/28 05:40:56;;;;;;;17.35;8.90;;;;;;;12.67;100.00;100767.03;4965568;28;20261;-58
2022/11/28 05:43:22;;;;;;;17.27;8.65;;;;;;;12.67;100.00;100758.19;4960772;28;20066;-59
2022/11/28 05:45:47;;;;;;;14.93;8.80;;;;;;;12.13;100.00;100764.47;4966686;28;20039;-57
2022/11/28 05:48:13;;;;;;;16.63;8.70;;;;;;;12.39;100.00;100761.97;4968723;28;20055;-57
2022/11/28 05:50:39;;;;;;;19.53;9.77;;;;;;;12.17;100.00;100765.69;4964948;28;20293;-59
2022/11/28 05:53:05;;;;;;;13.98;8.38;;;;;;;12.43;100.00;100764.00;4968094;28;20034;-57
2022/11/28 05:55:30;;;;;;;14.23;8.40;;;;;;;12.56;100.00;100767.69;4965934;28;20064;-59
2022/11/28 05:57:55;;;;;;;18.10;7.97;;;;;;;12.50;100.00;100757.81;4979408;28;20270;-58
2022/11/28 06:00:22;;;;;;;15.50;8.00;;;;;;;12.42;100.00;100758.88;4988730;28;20114;-59
2022/11/28 06:02:47;;;;;;;17.63;8.77;;;;;;;12.47;100.00;100769.78;4989386;28;20035;-57
2022/11/28 06:05:13;;;;;;;14.85;8.18;;;;;;;12.46;100.00;100763.59;4988061;28;20039;-56
2022/11/28 06:07:39;;;;;;;18.17;8.57;;;;;;;12.77;100.00;100764.75;4987689;28;20026;-58
2022/11/28 06:10:06;;;;;;;14.07;8.90;;;;;;;12.57;100.00;100759.47;4982690;28;20090;-57
2022/11/28 06:12:32;;;;;;;14.50;8.47;;;;;;;12.81;100.00;100762.47;4986031;28;20294;-56
2022/11/28 06:14:57;;;;;;;14.73;8.77;;;;;;;12.63;100.00;100763.13;5003681;28;20273;-59
2022/11/28 06:17:23;;;;;;;15.47;8.00;;;;;;;12.74;100.00;100762.50;4986361;28;20050;-56
2022/11/28 06:19:48;;;;;;;15.30;9.57;;;;;;;12.81;100.00;100764.31;4987084;28;20372;-59
2022/11/28 06:22:14;;;;;;;14.13;8.77;;;;;;;12.82;100.00;100760.59;4988614;28;20042;-59
2022/11/28 06:24:39;;;;;;;14.07;8.57;;;;;;;12.91;100.00;100759.31;4977225;28;20059;-56
2022/11/28 06:27:05;;;;;;;14.23;8.40;;;;;;;12.53;100.00;100766.25;4993263;28;20106;-57
2022/11/28 06:29:30;;;;;;;13.53;8.77;;;;;;;12.70;100.00;100763.13;4991806;28;20027;-57
2022/11/28 06:31:55;;;;;;;16.67;9.37;;;;;;;12.59;100.00;100765.44;4989435;28;20059;-58
2022/11/28 06:34:22;;;;;;;17.23;9.20;;;;;;;12.33;100.00;100775.16;4986815;28;20031;-59
2022/11/28 06:36:47;;;;;;;17.90;9.98;;;;;;;12.79;100.00;100769.88;4989619;28;20497;-56
2022/11/28 06:39:15;;;;;;;14.50;9.00;;;;;;;12.95;100.00;100767.78;4989071;28;20162;-58
2022/11/28 06:41:41;;;;;;;16.17;10.27;;;;;;;12.51;100.00;100780.94;4986727;28;20034;-58
2022/11/28 06:44:10;;;;;;;17.83;10.20;;;;;;;12.68;100.00;100775.91;4993470;28;20296;-56
2022/11/28 06:46:36;;;;;;;15.83;9.50;;;;;;;12.97;100.00;100779.13;4986748;28;20360;-59
2022/11/28 06:49:02;;;;;;;16.15;10.18;;;;;;;12.73;100.00;100779.63;4992166;28;20273;-55
2022/11/28 06:51:27;;;;;;;17.45;10.38;;;;;;;12.78;100.00;100781.66;4992138;28;20038;-58
2022/11/28 06:53:53;;;;;;;18.23;9.52;;;;;;;12.47;100.00;100784.03;4987308;28;20039;-58
2022/11/28 06:56:20;;;;;;;22.20;10.15;;;;;;;12.72;100.00;100782.50;4988058;28;20110;-57
2022/11/28 06:58:46;;;;;;;17.92;9.75;;;;;;;12.45;100.00;100780.69;4982361;28;20089;-57
2022/11/28 07:01:19;;;;;;;17.55;9.77;;;;;;;12.91;100.00;100775.41;4993073;28;20038;-59
2022/11/28 07:03:46;;;;;;;25.60;10.73;;;;;;;12.51;100.00;100778.25;4992073;28;20034;-57
2022/11/28 07:06:14;;;;;;;21.17;11.10;;;;;;;12.54;100.00;100778.63;4981924;28;20277;-58
2022/11/28 07:08:40;;;;;;;17.70;9.63;;;;;;;12.87;100.00;100775.03;4992467;28;20512;-58
2022/11/28 07:11:08;;;;;;;;;;;;;;;12.75;100.00;100782.09;4988137;28;20272;-54
2022/11/28 07:13:34;;;;;;;18.55;9.75;;;;;;;12.99;100.00;100783.25;4991057;28;19921;-57
2022/11/28 07:16:00;;;;;;;16.50;9.48;;;;;;;12.89;100.00;100785.53;4991978;28;20031;-57
2022/11/28 07:18:25;;;;;;;17.60;10.90;;;;;;;12.93;100.00;100788.63;4989937;28;20078;-57
2022/11/28 07:20:51;;;;;;;17.50;9.57;;;;;;;13.27;100.00;100782.06;4987521;28;20038;-57
2022/11/28 07:23:16;;;;;;;19.90;10.10;;;;;;;13.05;100.00;100786.94;4988192;28;20043;-56
2022/11/28 07:25:42;;;;;;;20.80;11.80;;;;;;;12.71;100.00;100778.19;4984604;28;20051;-55
2022/11/28 07:28:07;;;;;;;19.03;10.57;;;;;;;12.87;100.00;100792.97;4986974;28;20061;-57
2022/11/28 07:30:33;;;;;;;21.85;11.38;;;;;;;12.87;100.00;100799.19;4994552;28;20023;-58
2022/11/28 07:32:59;;;;;;;16.57;9.90;;;;;;;12.88;100.00;100802.69;4983247;28;20070;-57
2022/11/28 07:35:24;;;;;;;22.23;11.70;;;;;;;12.80;100.00;100800.25;4984842;28;20285;-57
2022/11/28 07:37:50;;;;;;;23.90;11.87;;;;;;;13.13;100.00;100802.81;4987431;28;20047;-58
2022/11/28 07:40:18;;;;;;;19.63;10.73;;;;;;;13.36;100.00;100806.84;4985423;28;20320;-56
2022/11/28 07:42:44;;;;;;;22.93;11.40;;;;;;;13.34;100.00;100804.34;4990263;28;20034;-55
2022/11/28 07:45:10;;;;;;;19.30;10.18;;;;;;;13.44;100.00;100805.78;4984035;28;20307;-58
2022/11/28 07:47:35;;;;;;;24.20;12.05;;;;;;;12.72;100.00;100810.19;4982466;28;20031;-57
2022/11/28 07:50:01;;;;;;;20.42;11.27;;;;;;;13.02;100.00;100817.72;4981787;28;20827;-56
2022/11/28 07:52:26;;;;;;;23.80;11.30;;;;;;;12.83;100.00;100818.59;4988183;28;20031;-57
2022/11/28 07:54:52;;;;;;;20.60;10.97;;;;;;;13.16;100.00;100821.16;4992371;28;20038;-58
2022/11/28 07:57:17;;;;;;;23.50;11.70;;;;;;;13.16;100.00;100813.13;4991196;28;20055;-57
2022/11/28 07:59:43;;;;;;;23.70;11.93;;;;;;;13.10;100.00;100823.88;4987071;28;20102;-56
2022/11/28 08:02:10;;;;;;;29.50;12.77;;;;;;;13.29;100.00;100820.28;4991537;28;20049;-55
2022/11/28 08:04:36;;;;;;;34.30;12.77;;;;;;;13.37;100.00;100821.06;4993279;28;20109;-56
2022/11/28 08:07:02;;;;;;;24.42;12.57;;;;;;;13.08;100.00;100818.75;4988386;28;20349;-58
2022/11/28 08:09:29;;;;;;;31.00;13.18;;;;;;;13.28;100.00;100824.00;4981670;28;20027;-57
2022/11/28 08:11:55;;;;;;;28.10;13.80;;;;;;;13.02;100.00;100822.25;4987081;28;20027;-58
2022/11/28 08:14:20;;;;;;;30.23;12.80;;;;;;;13.46;100.00;100825.19;4989353;28;20314;-58
2022/11/28 08:16:46;;;;;;;41.03;14.43;;;;;;;13.76;100.00;100830.81;4989066;28;20034;-57
2022/11/28 08:19:12;;;;;;;31.30;13.17;;;;;;;13.62;100.00;100830.06;4988302;28;20043;-55
2022/11/28 08:21:37;;;;;;;27.63;14.25;;;;;;;13.37;100.00;100834.50;4992341;28;20041;-57
2022/11/28 08:24:04;;;;;;;23.43;13.67;;;;;;;13.18;100.00;100831.72;4987804;28;20039;-59
2022/11/28 08:26:31;;;;;;;27.87;14.13;;;;;;;12.97;100.00;100828.28;4987958;28;20057;-56
2022/11/28 08:29:00;;;;;;;;;;;;;;;13.13;100.00;100836.88;4985184;28;20356;-58
2022/11/28 08:31:28;;;;;;;27.83;12.33;;;;;;;13.22;100.00;100835.63;4987915;28;19973;-58
2022/11/28 08:33:56;;;;;;;31.13;15.67;;;;;;;13.23;100.00;100831.06;4988301;28;20370;-56
2022/11/28 08:36:22;;;;;;;46.10;16.37;;;;;;;13.04;100.00;100833.63;4988336;28;20277;-56
2022/11/28 08:38:48;;;;;;;35.83;14.75;;;;;;;12.80;100.00;100837.81;4987106;28;20289;-58
2022/11/28 08:41:20;;;;;;;41.25;15.43;;;;;;;13.31;100.00;100844.25;4986673;28;20049;-58
2022/11/28 08:43:46;;;;;;;32.67;15.10;;;;;;;12.91;100.00;100846.03;4989039;28;20054;-58
2022/11/28 08:46:14;;;;;;;;;;;;;;;13.03;100.00;100851.59;4986245;28;20265;-58
2022/11/28 08:48:40;;;;;;;36.27;14.60;;;;;;;12.86;100.00;100848.53;4986155;28;19972;-57
2022/11/28 08:51:08;;;;;;;32.55;14.30;;;;;;;13.68;100.00;100841.00;4987189;28;20035;-57
2022/11/28 08:53:33;;;;;;;36.33;15.63;;;;;;;13.72;100.00;100850.25;4987787;28;20102;-58
2022/11/28 08:55:59;;;;;;;46.60;16.92;;;;;;;13.54;100.00;100840.25;4989901;28;20660;-58
2022/11/28 08:58:24;;;;;;;36.73;16.37;;;;;;;13.48;100.00;100845.41;4987307;28;20086;-58
2022/11/28 09:00:50;;;;;;;36.25;16.75;;;;;;;13.56;100.00;100843.53;4988550;28;20038;-55
2022/11/28 09:03:18;;;;;;;37.67;15.93;;;;;;;13.56;100.00;100841.66;4990696;28;20070;-57
2022/11/28 09:05:45;;;;;;;42.37;16.07;;;;;;;13.65;100.00;100853.00;4987305;28;20098;-56
2022/11/28 09:08:16;;;;;;;40.50;18.03;;;;;;;13.96;100.00;100853.22;4989073;28;20288;-59
2022/11/28 09:10:42;;;;;;;33.13;15.03;;;;;;;14.33;100.00;100850.66;4987513;28;20265;-57
2022/11/28 09:13:10;;;;;;;42.50;17.30;;;;;;;14.30;100.00;100846.53;4990166;28;20336;-55
2022/11/28 09:15:40;;;;;;;45.60;18.10;;;;;;;13.82;100.00;100847.91;4989775;28;20269;-60
2022/11/28 09:18:06;;;;;;;39.17;17.07;;;;;;;13.76;100.00;100848.78;4988066;28;20276;-57
2022/11/28 09:20:32;;;;;;;42.37;16.07;;;;;;;13.89;100.00;100843.34;4985541;28;20312;-58
2022/11/28 09:22:57;;;;;;;38.33;15.43;;;;;;;13.44;100.00;100846.91;4989078;28;20061;-59
2022/11/28 09:25:23;;;;;;;39.97;18.47;;;;;;;13.45;100.00;100850.41;4988186;28;20034;-54
2022/11/28 09:27:48;;;;;;;43.17;17.60;;;;;;;13.68;100.00;100854.44;4985626;28;20042;-58
2022/11/28 09:30:14;;;;;;;43.37;15.47;;;;;;;13.36;100.00;100854.34;4991221;28;20091;-54
2022/11/28 09:32:40;;;;;;;47.55;17.23;;;;;;;13.48;100.00;100860.72;4986016;28;20045;-56
2022/11/28 09:35:06;;;;;;;36.23;16.40;;;;;;;13.51;100.00;100867.56;4986608;28;20062;-58
2022/11/28 09:37:32;;;;;;;49.03;17.65;;;;;;;13.32;100.00;100867.38;4984191;28;20043;-59
2022/11/28 09:39:57;;;;;;;51.37;19.03;;;;;;;13.54;100.00;100865.25;4986124;28;20074;-54
2022/11/28 09:42:33;;;;;;;54.87;19.10;;;;;;;13.30;100.00;100867.59;4989355;28;20042;-58
2022/11/28 09:45:05;;;;;;;52.85;17.08;;;;;;;13.23;100.00;100869.47;4989336;28;20090;-56
2022/11/28 09:47:33;;;;;;;51.67;18.13;;;;;;;13.40;100.00;100869.00;4985662;28;20117;-56
2022/11/28 09:50:09;;;;;;;60.97;20.00;;;;;;;13.44;100.00;100865.69;4989930;28;20272;-59
2022/11/28 09:52:51;;;;;;;57.30;19.05;;;;;;;13.34;100.00;100870.69;4988869;28;20297;-56
2022/11/28 09:55:20;;;;;;;50.93;19.70;;;;;;;13.56;100.00;100871.22;4985207;28;20046;-59
2022/11/28 09:57:50;;;;;;;51.23;19.07;;;;;;;13.72;100.00;100875.25;4988379;28;20844;-58
2022/11/28 10:00:22;;;;;;;50.57;17.03;;;;;;;13.66;100.00;100865.38;4985565;28;20295;-57
2022/11/28 10:03:03;;;;;;;50.93;18.87;;;;;;;13.59;100.00;100878.03;4987301;28;20318;-58
2022/11/28 10:05:36;;;;;;;45.60;18.37;;;;;;;13.97;100.00;100879.06;4989842;28;20288;-57
2022/11/28 10:08:11;;;;;;;47.97;17.30;;;;;;;14.14;100.00;100879.34;4988764;28;20273;-57
2022/11/28 10:10:54;;;;;;;53.57;19.77;;;;;;;14.07;100.00;100879.41;4986885;28;20304;-57
2022/11/28 10:13:43;;;;;;;47.73;17.87;;;;;;;13.85;100.00;100885.13;4984144;28;20281;-59
2022/11/28 10:16:24;;;;;;;51.20;19.33;;;;;;;13.47;100.00;100880.56;5016963;28;20284;-56
2022/11/28 10:18:54;;;;;;;43.47;17.27;;;;;;;13.72;100.00;100877.94;4993033;28;20289;-56
2022/11/28 10:21:38;;;;;;;46.50;18.10;;;;;;;13.83;100.00;100881.81;4987685;28;20288;-58
2022/11/28 10:24:29;;;;;;;53.07;17.67;;;;;;;13.81;100.00;100883.09;4983477;28;20357;-59
2022/11/28 10:27:00;;;;;;;41.33;16.97;;;;;;;14.06;100.00;100880.44;4983208;28;20281;-56
2022/11/28 10:29:37;;;;;;;46.47;18.67;;;;;;;13.90;100.00;100877.25;4987211;28;20360;-57
2022/11/28 10:32:05;;;;;;;49.97;17.50;;;;;;;13.97;100.00;100879.06;4986215;28;20280;-58
2022/11/28 10:34:44;;;;;;;48.53;17.13;;;;;;;14.33;100.00;100866.81;4989943;28;20277;-59
2022/11/28 10:37:32;;;;;;;40.63;16.87;;;;;;;13.98;100.00;100869.94;4987687;28;20767;-58
2022/11/28 10:40:14;;;;;;;45.47;17.87;;;;;;;13.67;100.00;100872.41;4987132;28;20316;-59
2022/11/28 10:42:55;;;;;;;42.27;17.03;;;;;;;14.20;100.00;100870.44;4989330;28;20308;-58
2022/11/28 10:45:49;;;;;;;44.17;17.50;;;;;;;14.09;100.00;100869.25;4984812;28;20342;-57
2022/11/28 10:48:45;;;;;;;59.50;20.40;;;;;;;14.25;100.00;100864.38;4986445;28;20289;-58
2022/11/28 10:51:32;;;;;;;48.23;18.87;;;;;;;14.88;100.00;100868.81;4982673;28;20291;-57
2022/11/28 10:54:24;;;;;;;52.05;18.10;;;;;;;14.18;100.00;100865.25;4986296;28;20273;-59
2022/11/28 10:57:01;;;;;;;50.70;18.23;;;;;;;14.46;100.00;100873.94;4986068;28;20054;-57
2022/11/28 10:59:46;;;;;;;42.58;17.63;;;;;;;14.58;100.00;100865.97;4984720;28;20349;-59
2022/11/28 11:02:32;;;;;;;49.77;20.40;;;;;;;14.66;100.00;100862.16;4986691;28;20524;-58
2022/11/28 11:04:57;;;;;;;42.30;17.00;;;;;;;14.52;100.00;100874.91;4985462;28;20346;-57
2022/11/28 11:07:30;;;;;;;45.73;17.83;;;;;;;14.12;100.00;100866.13;4986319;28;20281;-59
2022/11/28 11:10:13;;;;;;;46.40;18.20;;;;;;;14.67;100.00;100874.59;4985879;28;20064;-58
2022/11/28 11:12:39;;;;;;;39.20;17.53;;;;;;;14.77;100.00;100870.38;4989771;28;20276;-58
2022/11/28 11:15:28;;;;;;;46.78;19.48;;;;;;;14.96;100.00;100875.75;4991372;28;20291;-57
2022/11/28 11:17:55;;;;;;;45.30;18.30;;;;;;;14.43;100.00;100872.50;4996115;28;20038;-58
2022/11/28 11:20:31;;;;;;;43.85;18.65;;;;;;;14.53;100.00;100877.38;4990065;28;20289;-59
2022/11/28 11:22:59;;;;;;;54.53;19.53;;;;;;;14.27;100.00;100878.41;4996633;28;20046;-57
2022/11/28 11:25:27;;;;;;;46.77;19.23;;;;;;;14.60;100.00;100877.31;4989212;28;20310;-58